KLEX/LEX METAR and TAF weather

Enter ICAO airport designator
Station Type Date Time Source
KLEX METAR 2020/04/04 10:54 UTC NOAA

KLEX 041054Z 17003KT 10SM BKN085 07/03 A3004 RMK AO2 SLP170 T00720033


Station Type Date Time Source
KLEX Decoded METAR 2020/04/04 10:54 UTC NOAA

LEXINGTON BLUE GRASS AIRPORT, KY, United States (KLEX) 38-02N 084-36W 300M
Apr 04, 2020 - 06:54 AM EDT / 2020.04.04 1054 UTC
Wind: from the S (170 degrees) at 3 MPH (3 KT):0
Visibility: 10 mile(s):0
Sky conditions: mostly cloudy
Temperature: 45.0 F (7.2 C)
Dew Point: 37.9 F (3.3 C)
Relative Humidity: 76%
Pressure (altimeter): 30.04 in. Hg (1017 hPa)
ob: KLEX 041054Z 17003KT 10SM BKN085 07/03 A3004 RMK AO2 SLP170 T00720033
cycle: 11

Station Type Date Time Source
KLEX TAF 2020/04/04 12:22 UTC NOAA

TAF KLEX 041120Z 0412/0512 VRB03KT P6SM SCT120
FM041600 24003KT P6SM BKN100
FM042100 27006KT P6SM BKN050
FM050100 31004KT P6SM OVC050

Example: see airport list